createdAt,value
2023-04-29T00:01:25.084Z,100246.72
2023-04-29T00:03:52.846Z,100248.78
2023-04-29T00:06:20.681Z,100253.16
2023-04-29T00:08:48.377Z,100243.81
2023-04-29T00:11:16.285Z,100248.72
2023-04-29T00:13:45.479Z,100255.69
2023-04-29T00:16:13.865Z,100256.66
2023-04-29T00:18:41.602Z,100256.97
2023-04-29T00:21:09.643Z,100252.25
2023-04-29T00:23:37.305Z,100259.19
2023-04-29T00:26:05.060Z,100248.22
2023-04-29T00:28:33.192Z,100255.38
2023-04-29T00:31:02.322Z,100268.88
2023-04-29T00:33:30.040Z,100273.53
2023-04-29T00:35:57.992Z,100276.81
2023-04-29T00:38:25.919Z,100277.09
2023-04-29T00:40:53.691Z,100279.91
2023-04-29T00:43:21.364Z,100271.50
2023-04-29T00:45:50.926Z,100277.41
2023-04-29T00:48:20.024Z,100278.34
2023-04-29T00:50:47.673Z,100287.44
2023-04-29T00:53:15.595Z,100282.66
2023-04-29T00:55:44.113Z,100282.31
2023-04-29T00:58:11.902Z,100295.16
2023-04-29T01:00:39.693Z,100290.81
2023-04-29T01:03:07.505Z,100299.56
2023-04-29T01:05:51.269Z,100293.44
2023-04-29T01:08:31.847Z,100307.97
2023-04-29T01:11:07.752Z,100308.09
2023-04-29T01:13:41.340Z,100303.63
2023-04-29T01:16:12.963Z,100316.31
2023-04-29T01:18:43.682Z,100334.84
2023-04-29T01:21:12.754Z,100335.31
2023-04-29T01:23:45.186Z,100327.06
2023-04-29T01:26:14.676Z,100334.13
2023-04-29T01:28:47.855Z,100332.16
2023-04-29T01:31:19.968Z,100336.94
2023-04-29T01:33:54.002Z,100340.28
2023-04-29T01:36:29.040Z,100348.09
2023-04-29T01:39:07.179Z,100341.53
2023-04-29T01:41:40.913Z,100346.03
2023-04-29T01:44:09.783Z,100362.16
2023-04-29T01:46:37.665Z,100359.25
2023-04-29T01:49:05.477Z,100347.63
2023-04-29T01:51:34.182Z,100341.88
2023-04-29T01:54:05.236Z,100354.50
2023-04-29T01:56:32.997Z,100360.97
2023-04-29T01:59:00.918Z,100365.81
2023-04-29T02:01:28.612Z,100356.66
2023-04-29T02:03:56.488Z,100367.56
2023-04-29T02:06:24.601Z,100369.69
2023-04-29T02:08:52.312Z,100355.72
2023-04-29T02:11:21.413Z,100369.69
2023-04-29T02:13:49.236Z,100381.94
2023-04-29T02:16:17.509Z,100367.47
2023-04-29T02:18:45.247Z,100388.81
2023-04-29T02:21:13.341Z,100383.59
2023-04-29T02:23:41.183Z,100389.66
2023-04-29T02:26:10.024Z,100396.59
2023-04-29T02:28:39.097Z,100392.56
2023-04-29T02:31:06.857Z,100381.06
2023-04-29T02:33:34.677Z,100392.41
2023-04-29T02:36:02.370Z,100390.09
2023-04-29T02:38:30.064Z,100386.34
2023-04-29T02:40:58.200Z,100398.03
2023-04-29T02:43:26.293Z,100406.97
2023-04-29T02:45:55.707Z,100393.22
2023-04-29T02:51:00.845Z,100397.66
2023-04-29T02:53:28.500Z,100409.16
2023-04-29T02:55:57.208Z,100409.25
2023-04-29T02:58:24.992Z,100413.47
2023-04-29T03:00:52.699Z,100403.78
2023-04-29T03:03:23.337Z,100400.78
2023-04-29T03:05:51.441Z,100411.63
2023-04-29T03:08:19.204Z,100416.19
2023-04-29T03:10:47.018Z,100411.09
2023-04-29T03:13:14.692Z,100428.19
2023-04-29T03:15:42.744Z,100416.44
2023-04-29T03:18:10.452Z,100410.97
2023-04-29T03:20:39.548Z,100421.75
2023-04-29T03:23:07.218Z,100414.44
2023-04-29T03:25:35.246Z,100424.25
2023-04-29T03:28:03.436Z,100417.28
2023-04-29T03:30:31.095Z,100421.09
2023-04-29T03:32:58.837Z,100440.59
2023-04-29T03:35:26.640Z,100425.56
2023-04-29T03:37:55.835Z,100424.88
2023-04-29T03:40:23.501Z,100440.63
2023-04-29T03:42:51.209Z,100431.94
2023-04-29T03:45:18.920Z,100442.72
2023-04-29T03:47:46.909Z,100453.41
2023-04-29T03:50:14.701Z,100440.69
2023-04-29T03:52:42.631Z,100450.31
2023-04-29T03:55:12.712Z,100451.97
2023-04-29T03:57:42.842Z,100455.56
2023-04-29T04:00:11.472Z,100459.47
2023-04-29T04:02:39.328Z,100460.59
2023-04-29T04:05:07.434Z,100451.00
2023-04-29T04:07:35.182Z,100455.16
2023-04-29T04:10:03.022Z,100451.88
2023-04-29T04:12:32.073Z,100470.63
2023-04-29T04:14:59.775Z,100462.63
2023-04-29T04:17:27.623Z,100480.31
2023-04-29T04:19:55.641Z,100491.25
2023-04-29T04:22:23.319Z,100478.56
2023-04-29T04:24:51.046Z,100489.78
2023-04-29T04:27:18.719Z,100496.16
2023-04-29T04:29:48.179Z,100491.09
2023-04-29T04:32:15.959Z,100506.88
2023-04-29T04:34:43.623Z,100498.06
2023-04-29T04:37:11.952Z,100506.91
2023-04-29T04:39:40.002Z,100515.63
2023-04-29T04:42:07.736Z,100519.38
2023-04-29T04:44:35.414Z,100517.31
2023-04-29T04:47:05.521Z,100513.31
2023-04-29T04:49:33.217Z,100533.91
2023-04-29T04:52:01.136Z,100528.03
2023-04-29T04:54:28.851Z,100520.06
2023-04-29T04:56:56.499Z,100533.75
2023-04-29T04:59:24.207Z,100525.59
2023-04-29T05:02:06.011Z,100549.50
2023-04-29T05:04:34.020Z,100552.44
2023-04-29T05:07:01.786Z,100543.19
2023-04-29T05:09:29.603Z,100536.88
2023-04-29T05:11:59.233Z,100553.84
2023-04-29T05:14:27.119Z,100542.53
2023-04-29T05:16:54.962Z,100541.56
2023-04-29T05:19:24.097Z,100550.44
2023-04-29T05:21:51.908Z,100570.78
2023-04-29T05:24:19.602Z,100559.47
2023-04-29T05:26:47.413Z,100551.25
2023-04-29T05:29:15.103Z,100583.16
2023-04-29T05:31:42.905Z,100566.97
2023-04-29T05:34:10.590Z,100557.72
2023-04-29T05:36:39.710Z,100580.31
2023-04-29T05:39:07.690Z,100585.00
2023-04-29T05:41:35.453Z,100588.25
2023-04-29T05:44:03.303Z,100583.75
2023-04-29T05:46:30.988Z,100598.22
2023-04-29T05:48:58.660Z,100594.81
2023-04-29T05:51:28.213Z,100595.31
2023-04-29T05:53:59.417Z,100607.88
2023-04-29T05:56:27.196Z,100597.88
2023-04-29T05:58:54.868Z,100594.63
2023-04-29T06:01:22.530Z,100610.31
2023-04-29T06:03:50.522Z,100624.38
2023-04-29T06:06:18.819Z,100611.53
2023-04-29T06:08:46.958Z,100632.09
2023-04-29T06:11:16.025Z,100637.56
2023-04-29T06:13:43.744Z,100626.81
2023-04-29T06:16:11.686Z,100625.75
2023-04-29T06:18:39.431Z,100643.88
2023-04-29T06:21:07.386Z,100655.22
2023-04-29T06:23:35.044Z,100638.84
2023-04-29T06:26:39.020Z,100655.75
2023-04-29T06:29:06.746Z,100656.91
2023-04-29T06:31:34.452Z,100655.41
2023-04-29T06:34:02.186Z,100648.84
2023-04-29T06:36:29.846Z,100664.56
2023-04-29T06:38:57.516Z,100672.94
2023-04-29T06:41:25.257Z,100677.03
2023-04-29T06:43:54.319Z,100674.69
2023-04-29T06:46:22.060Z,100688.41
2023-04-29T06:48:49.825Z,100666.09
2023-04-29T06:51:17.511Z,100682.75
2023-04-29T06:53:45.394Z,100679.25
2023-04-29T06:56:14.138Z,100691.63
2023-04-29T06:58:42.704Z,100692.84
2023-04-29T07:01:11.951Z,100701.25
2023-04-29T07:03:39.801Z,100705.34
2023-04-29T07:06:07.674Z,100715.34
2023-04-29T07:08:35.321Z,100703.72
2023-04-29T07:11:03.368Z,100712.41
2023-04-29T07:13:31.092Z,100726.06
2023-04-29T07:15:58.805Z,100726.16
2023-04-29T07:18:46.067Z,100716.91
2023-04-29T07:21:13.874Z,100720.03
2023-04-29T07:23:41.515Z,100731.25
2023-04-29T07:26:13.354Z,100738.84
2023-04-29T07:28:41.193Z,100740.91
2023-04-29T07:31:09.233Z,100740.97
2023-04-29T07:33:37.245Z,100749.75
2023-04-29T07:36:07.411Z,100752.97
2023-04-29T07:38:36.995Z,100763.47
2023-04-29T07:41:05.253Z,100765.91
2023-04-29T07:43:33.070Z,100749.25
2023-04-29T07:46:00.758Z,100754.94
2023-04-29T07:48:28.511Z,100765.63
2023-04-29T07:50:56.272Z,100766.16
2023-04-29T07:53:25.463Z,100775.88
2023-04-29T07:55:53.138Z,100779.63
2023-04-29T07:58:20.804Z,100786.09
2023-04-29T08:00:48.746Z,100793.13
2023-04-29T08:03:16.571Z,100790.59
2023-04-29T08:05:45.355Z,100812.53
2023-04-29T08:08:13.120Z,100816.56
2023-04-29T08:10:43.970Z,100816.22
2023-04-29T08:13:11.666Z,100804.44
2023-04-29T08:15:39.322Z,100808.97
2023-04-29T08:18:07.033Z,100820.66
2023-04-29T08:20:34.741Z,100821.72
2023-04-29T08:23:02.784Z,100807.28
2023-04-29T08:25:30.600Z,100814.34
2023-04-29T08:27:59.690Z,100822.09
2023-04-29T08:30:27.402Z,100818.09
2023-04-29T08:32:55.122Z,100842.66
2023-04-29T08:35:22.958Z,100820.41
2023-04-29T08:37:50.615Z,100823.81
2023-04-29T08:40:18.581Z,100832.59
2023-04-29T08:42:48.867Z,100832.72
2023-04-29T08:45:21.785Z,100847.63
2023-04-29T08:47:51.395Z,100834.13
2023-04-29T08:50:19.660Z,100831.03
2023-04-29T08:52:47.594Z,100855.47
2023-04-29T08:55:15.365Z,100854.50
2023-04-29T08:57:44.416Z,100837.56
2023-04-29T09:00:13.670Z,100856.03
2023-04-29T09:02:47.480Z,100852.69
2023-04-29T09:05:15.312Z,100856.38
2023-04-29T09:07:52.758Z,100866.75
2023-04-29T09:10:20.475Z,100867.34
2023-04-29T09:12:48.256Z,100852.72
2023-04-29T09:15:16.239Z,100864.97
2023-04-29T09:17:46.511Z,100858.06
2023-04-29T09:20:28.007Z,100875.03
2023-04-29T09:22:57.405Z,100866.47
2023-04-29T09:25:27.280Z,100892.50
2023-04-29T09:27:55.305Z,100898.44
2023-04-29T09:30:23.242Z,100881.66
2023-04-29T09:33:09.226Z,100876.75
2023-04-29T09:35:37.488Z,100898.94
2023-04-29T09:38:13.307Z,100888.22
2023-04-29T09:40:57.302Z,100894.63
2023-04-29T09:43:26.418Z,100902.25
2023-04-29T09:45:54.211Z,100901.16
2023-04-29T09:48:23.500Z,100893.72
2023-04-29T09:51:02.118Z,100886.44
2023-04-29T09:53:31.620Z,100884.56
2023-04-29T09:56:00.561Z,100920.94
2023-04-29T09:58:36.897Z,100904.03
2023-04-29T10:01:05.443Z,100898.47
2023-04-29T10:03:36.389Z,100897.63
2023-04-29T10:06:05.933Z,100914.03
2023-04-29T10:08:35.113Z,100902.41
2023-04-29T10:11:04.010Z,100918.44
2023-04-29T10:13:31.884Z,100914.41
2023-04-29T10:16:05.636Z,100896.97
2023-04-29T10:18:38.627Z,100920.88
2023-04-29T10:21:12.757Z,100910.75
2023-04-29T10:23:40.941Z,100904.59
2023-04-29T10:26:10.024Z,100901.22
2023-04-29T10:28:38.454Z,100908.03
2023-04-29T10:31:08.205Z,100913.13
2023-04-29T10:33:37.781Z,100897.00
2023-04-29T10:36:06.187Z,100899.16
2023-04-29T10:38:36.656Z,100917.81
2023-04-29T10:41:09.995Z,100904.78
2023-04-29T10:43:37.695Z,100898.88
2023-04-29T10:46:20.096Z,100912.72
2023-04-29T10:48:50.509Z,100913.31
2023-04-29T10:51:35.457Z,100917.34
2023-04-29T10:54:08.318Z,100918.09
2023-04-29T10:56:41.918Z,100913.84
2023-04-29T10:59:13.475Z,100920.44
2023-04-29T11:01:47.039Z,100910.44
2023-04-29T11:04:17.015Z,100926.94
2023-04-29T11:06:49.162Z,100907.34
2023-04-29T11:09:21.340Z,100921.22
2023-04-29T11:11:59.161Z,100930.53
2023-04-29T11:14:28.352Z,100942.53
2023-04-29T11:16:58.951Z,100925.84
2023-04-29T11:19:33.092Z,100920.31
2023-04-29T11:22:15.048Z,100925.84
2023-04-29T11:24:54.047Z,100911.91
2023-04-29T11:27:25.492Z,100909.88
2023-04-29T11:29:58.255Z,100925.09
2023-04-29T11:32:26.992Z,100912.81
2023-04-29T11:34:56.726Z,100911.75
2023-04-29T11:37:55.276Z,100919.75
2023-04-29T11:40:22.994Z,100934.16
2023-04-29T11:42:51.319Z,100926.13
2023-04-29T11:45:19.645Z,100934.03
2023-04-29T11:47:55.461Z,100936.75
2023-04-29T11:50:25.072Z,100955.09
2023-04-29T11:52:52.976Z,100942.94
2023-04-29T11:55:20.763Z,100944.25
2023-04-29T11:57:50.393Z,100948.72
2023-04-29T12:00:18.206Z,100948.59
2023-04-29T12:02:47.916Z,100954.44
2023-04-29T12:05:17.556Z,100961.66
2023-04-29T12:07:47.153Z,100961.44
2023-04-29T12:10:14.893Z,100960.72
2023-04-29T12:12:44.016Z,100947.78
2023-04-29T12:15:12.682Z,100958.47
2023-04-29T12:17:52.615Z,100956.28
2023-04-29T12:20:20.782Z,100938.75
2023-04-29T12:22:50.034Z,100971.31
2023-04-29T12:25:18.305Z,100949.81
2023-04-29T12:27:46.030Z,100958.41
2023-04-29T12:30:14.077Z,100950.41
2023-04-29T12:32:42.039Z,100969.97
2023-04-29T12:35:16.686Z,100959.34
2023-04-29T12:37:44.498Z,100962.44
2023-04-29T12:40:17.440Z,100947.72
2023-04-29T12:42:46.654Z,100959.44
2023-04-29T12:45:28.096Z,100952.09
2023-04-29T12:47:57.790Z,100942.66
2023-04-29T12:50:34.407Z,100962.66
2023-04-29T12:53:03.373Z,100972.03
2023-04-29T12:55:32.973Z,100954.88
2023-04-29T12:58:09.509Z,100963.44
2023-04-29T13:00:37.980Z,100964.50
2023-04-29T13:03:06.482Z,100958.28
2023-04-29T13:05:34.588Z,100972.19
2023-04-29T13:08:02.401Z,100962.69
2023-04-29T13:10:30.054Z,100980.88
2023-04-29T13:13:17.517Z,100970.53
2023-04-29T13:15:45.205Z,100972.78
2023-04-29T13:18:12.913Z,100955.06
2023-04-29T13:20:42.335Z,100953.38
2023-04-29T13:23:10.481Z,100944.66
2023-04-29T13:25:38.164Z,100970.84
2023-04-29T13:28:07.446Z,100970.63
2023-04-29T13:30:37.405Z,100948.25
2023-04-29T13:33:11.823Z,100972.94
2023-04-29T13:35:41.700Z,100959.09
2023-04-29T13:38:09.851Z,100957.44
2023-04-29T13:40:40.840Z,100959.84
2023-04-29T13:43:15.425Z,100950.38
2023-04-29T13:45:48.095Z,100948.88
2023-04-29T13:48:45.300Z,100949.72
2023-04-29T13:51:46.097Z,100951.91
2023-04-29T14:04:01.296Z,100959.72
2023-04-29T14:06:30.530Z,100950.75
2023-04-29T14:08:58.570Z,100952.03
2023-04-29T14:11:26.277Z,100952.50
2023-04-29T14:13:53.969Z,100982.28
2023-04-29T14:16:21.714Z,100983.09
2023-04-29T14:18:50.793Z,100989.97
2023-04-29T14:21:18.467Z,100961.63
2023-04-29T14:23:46.284Z,100955.31
2023-04-29T14:26:27.036Z,100986.88
2023-04-29T14:28:58.438Z,100969.28
2023-04-29T14:31:28.095Z,100983.25
2023-04-29T14:33:57.866Z,100986.72
2023-04-29T14:36:26.403Z,100986.34
2023-04-29T14:38:54.450Z,101015.84
2023-04-29T14:41:22.546Z,100984.03
2023-04-29T14:43:50.439Z,100979.38
2023-04-29T14:46:18.511Z,100998.22
2023-04-29T14:48:46.337Z,100990.94
2023-04-29T14:51:15.862Z,101020.13
2023-04-29T14:53:44.145Z,101012.53
2023-04-29T14:56:11.832Z,101000.28
2023-04-29T14:58:39.515Z,101007.88
2023-04-29T15:01:07.426Z,101014.31
2023-04-29T15:06:07.913Z,101008.94
2023-04-29T15:08:38.302Z,101023.03
2023-04-29T15:11:06.023Z,101023.00
2023-04-29T15:13:33.686Z,101023.91
2023-04-29T15:16:01.464Z,101028.31
2023-04-29T15:18:29.189Z,101033.22
2023-04-29T15:20:56.928Z,101019.06
2023-04-29T15:23:24.827Z,101008.19
2023-04-29T15:25:54.009Z,101031.59
2023-04-29T15:28:23.124Z,101023.38
2023-04-29T15:30:51.075Z,101046.59
2023-04-29T15:33:19.105Z,101030.81
2023-04-29T15:35:46.842Z,101035.81
2023-04-29T15:38:14.826Z,101027.66
2023-04-29T15:40:42.513Z,101024.53
2023-04-29T15:43:11.916Z,101011.66
2023-04-29T15:45:39.689Z,101031.50
2023-04-29T15:48:07.854Z,101037.59
2023-04-29T15:50:35.609Z,101047.28
2023-04-29T15:53:03.273Z,101027.63
2023-04-29T15:55:31.330Z,101037.91
2023-04-29T15:57:58.995Z,101046.75
2023-04-29T16:00:28.485Z,101043.78
2023-04-29T16:02:56.467Z,101049.75
2023-04-29T16:05:24.188Z,101040.56
2023-04-29T16:07:52.128Z,101034.75
2023-04-29T16:10:19.842Z,101034.59
2023-04-29T16:12:47.666Z,101042.66
2023-04-29T16:15:15.603Z,101041.31
2023-04-29T16:17:44.861Z,101035.50
2023-04-29T16:20:13.072Z,101046.16
2023-04-29T16:22:40.822Z,101059.41
2023-04-29T16:25:09.247Z,101060.91
2023-04-29T16:27:37.698Z,101042.19
2023-04-29T16:30:06.177Z,101044.84
2023-04-29T16:32:34.532Z,101056.78
2023-04-29T16:35:03.673Z,101063.97
2023-04-29T16:37:31.765Z,101060.13
2023-04-29T16:39:59.899Z,101065.16
2023-04-29T16:42:27.555Z,101073.69
2023-04-29T16:44:55.278Z,101053.44
2023-04-29T16:47:24.100Z,101063.41
2023-04-29T16:49:52.092Z,101046.28
2023-04-29T16:52:22.378Z,101044.34
2023-04-29T16:54:50.398Z,101049.78
2023-04-29T16:57:18.062Z,101034.34
2023-04-29T16:59:45.937Z,101047.88
2023-04-29T17:02:13.692Z,101054.78
2023-04-29T17:04:41.536Z,101061.94
2023-04-29T17:07:10.128Z,101043.78
2023-04-29T17:09:39.446Z,101063.44
2023-04-29T17:12:08.074Z,101066.75
2023-04-29T17:14:41.069Z,101070.56
2023-04-29T17:17:08.973Z,101053.59
2023-04-29T17:19:36.654Z,101055.50
2023-04-29T17:22:05.024Z,101045.19
2023-04-29T17:24:33.699Z,101054.94
2023-04-29T17:27:03.115Z,101060.06
2023-04-29T17:29:30.801Z,101055.38
2023-04-29T17:32:02.184Z,101053.25
2023-04-29T17:34:31.135Z,101055.41
2023-04-29T17:36:58.930Z,101072.69
2023-04-29T17:39:26.595Z,101068.69
2023-04-29T17:41:54.264Z,101073.44
2023-04-29T17:44:23.731Z,101063.66
2023-04-29T17:46:51.544Z,101079.50
2023-04-29T17:49:19.216Z,101076.16
2023-04-29T17:51:46.928Z,101082.69
2023-04-29T17:54:14.624Z,101085.41
2023-04-29T17:56:42.437Z,101101.91
2023-04-29T17:59:11.139Z,101095.66
2023-04-29T18:01:40.520Z,101100.03
2023-04-29T18:04:08.306Z,101109.78
2023-04-29T18:06:36.078Z,101102.19
2023-04-29T18:09:04.534Z,101093.94
2023-04-29T18:11:32.834Z,101108.09
2023-04-29T18:14:01.306Z,101102.88
2023-04-29T18:16:30.177Z,101109.88
2023-04-29T18:18:59.330Z,101122.69
2023-04-29T18:21:27.897Z,101103.16
2023-04-29T18:23:55.685Z,101118.47
2023-04-29T18:26:23.912Z,101128.25
2023-04-29T18:28:51.805Z,101124.84
2023-04-29T18:31:20.354Z,101131.94
2023-04-29T18:33:48.440Z,101136.94
2023-04-29T18:36:17.546Z,101132.59
2023-04-29T18:38:45.640Z,101140.31
2023-04-29T18:41:14.458Z,101151.34
2023-04-29T18:43:45.491Z,101150.09
2023-04-29T18:46:13.216Z,101152.38
2023-04-29T18:48:41.409Z,101156.28
2023-04-29T18:51:09.118Z,101156.19
2023-04-29T18:53:38.240Z,101156.41
2023-04-29T18:56:06.692Z,101163.72
2023-04-29T18:58:34.648Z,101163.72
2023-04-29T19:01:03.053Z,101166.03
2023-04-29T19:03:30.816Z,101153.69
2023-04-29T19:05:58.540Z,101157.97
2023-04-29T19:08:26.933Z,101168.56
2023-04-29T19:10:56.434Z,101170.09
2023-04-29T19:13:26.676Z,101182.22
2023-04-29T19:15:55.160Z,101180.41
2023-04-29T19:18:23.785Z,101184.63
2023-04-29T19:20:52.006Z,101178.78
2023-04-29T19:23:19.683Z,101185.41
2023-04-29T19:25:47.549Z,101173.16
2023-04-29T19:28:16.642Z,101178.28
2023-04-29T19:31:01.821Z,101190.22
2023-04-29T19:33:29.767Z,101180.91
2023-04-29T19:35:57.532Z,101179.72
2023-04-29T19:38:25.646Z,101169.72
2023-04-29T19:40:55.564Z,101190.38
2023-04-29T19:43:24.680Z,101191.56
2023-04-29T19:45:52.366Z,101197.72
2023-04-29T19:48:20.195Z,101188.91
2023-04-29T19:50:47.912Z,101187.16
2023-04-29T19:53:15.586Z,101193.78
2023-04-29T19:55:43.397Z,101183.72
2023-04-29T19:58:11.308Z,101196.91
2023-04-29T20:00:40.539Z,101184.03
2023-04-29T20:03:08.237Z,101186.22
2023-04-29T20:05:35.998Z,101203.03
2023-04-29T20:08:21.881Z,101190.31
2023-04-29T20:10:49.597Z,101209.84
2023-04-29T20:13:17.283Z,101215.31
2023-04-29T20:15:46.664Z,101201.56
2023-04-29T20:18:14.333Z,101212.97
2023-04-29T20:20:42.072Z,101221.75
2023-04-29T20:23:09.803Z,101211.53
2023-04-29T20:25:37.441Z,101220.81
2023-04-29T20:28:05.501Z,101225.03
2023-04-29T20:30:33.428Z,101224.22
2023-04-29T20:33:02.686Z,101229.00
2023-04-29T20:35:30.790Z,101239.38
2023-04-29T20:37:59.092Z,101222.13
2023-04-29T20:40:26.762Z,101226.25
2023-04-29T20:42:54.452Z,101249.56
2023-04-29T20:45:22.284Z,101253.28
2023-04-29T20:47:49.995Z,101244.94
2023-04-29T20:50:19.190Z,101270.59
2023-04-29T20:52:49.170Z,101274.28
2023-04-29T20:55:17.193Z,101265.06
2023-04-29T20:57:44.860Z,101275.53
2023-04-29T21:00:14.276Z,101279.75
2023-04-29T21:02:42.058Z,101283.72
2023-04-29T21:05:10.892Z,101280.41
2023-04-29T21:07:40.138Z,101271.09
2023-04-29T21:10:08.448Z,101275.34
2023-04-29T21:12:36.242Z,101285.50
2023-04-29T21:15:04.419Z,101284.88
2023-04-29T21:17:32.142Z,101284.66
2023-04-29T21:19:59.787Z,101284.16
2023-04-29T21:22:27.566Z,101279.09
2023-04-29T21:25:19.547Z,101271.72
2023-04-29T21:27:47.230Z,101286.41
2023-04-29T21:30:15.013Z,101284.56
2023-04-29T21:32:42.694Z,101278.56
2023-04-29T21:35:11.133Z,101287.06
2023-04-29T21:37:38.952Z,101294.53
2023-04-29T21:40:07.957Z,101300.44
2023-04-29T21:42:37.064Z,101295.50
2023-04-29T21:45:05.336Z,101305.09
2023-04-29T21:47:33.223Z,101298.66
2023-04-29T21:50:01.222Z,101308.00
2023-04-29T21:52:29.042Z,101296.19
2023-04-29T21:54:56.716Z,101303.78
2023-04-29T21:57:35.496Z,101304.28
2023-04-29T22:00:30.719Z,101293.25
2023-04-29T22:02:58.472Z,101300.59
2023-04-29T22:05:26.976Z,101291.47
2023-04-29T22:07:55.047Z,101298.06
2023-04-29T22:10:22.732Z,101319.59
2023-04-29T22:12:50.586Z,101321.78
2023-04-29T22:19:00.527Z,101303.53
2023-04-29T22:21:29.612Z,101305.88
2023-04-29T22:23:57.874Z,101315.38
2023-04-29T22:26:28.206Z,101321.56
2023-04-29T22:28:56.973Z,101321.00
2023-04-29T22:31:26.910Z,101327.78
2023-04-29T22:33:54.983Z,101322.56
2023-04-29T22:36:24.344Z,101326.56
2023-04-29T22:38:52.196Z,101328.50
2023-04-29T22:41:20.425Z,101317.25
2023-04-29T22:43:49.956Z,101328.44
2023-04-29T22:46:17.912Z,101324.94
2023-04-29T22:48:45.882Z,101308.00
2023-04-29T22:51:13.944Z,101306.06
2023-04-29T22:53:43.437Z,101319.50
2023-04-29T22:56:11.836Z,101340.88
2023-04-29T22:58:42.222Z,101340.16
2023-04-29T23:01:11.902Z,101325.91
2023-04-29T23:03:39.930Z,101316.09
2023-04-29T23:06:08.108Z,101320.78
2023-04-29T23:08:36.194Z,101323.91
2023-04-29T23:11:06.127Z,101322.00
2023-04-29T23:13:34.561Z,101339.22
2023-04-29T23:16:02.397Z,101337.78
2023-04-29T23:18:31.085Z,101336.84
2023-04-29T23:20:59.198Z,101337.81
2023-04-29T23:23:27.235Z,101338.63
2023-04-29T23:25:55.722Z,101326.78
2023-04-29T23:28:27.659Z,101341.03
2023-04-29T23:30:55.598Z,101328.25
2023-04-29T23:33:23.718Z,101332.31
2023-04-29T23:35:52.174Z,101321.53
2023-04-29T23:38:21.095Z,101341.22
2023-04-29T23:40:48.886Z,101349.09
2023-04-29T23:43:16.690Z,101342.66
2023-04-29T23:45:47.389Z,101343.63
2023-04-29T23:48:17.664Z,101340.34
2023-04-29T23:50:47.179Z,101345.06
2023-04-29T23:53:15.823Z,101344.75
2023-04-29T23:55:44.339Z,101356.03
2023-04-29T23:58:13.001Z,101344.72
